Trussville, Alabama
Current Conditions -  °F | °C
As of 3:53 PM on Saturday 20 Dec 2014 (Local Time) from KBHM Reporting Station
Overcast Overcast  
Wind Chill: 50°   Ceiling: 3900
Heat Index: 50°   Visibility: 10mi
Dew Point: 37°   Wind: 8mph
Humidity: 61%   Direction: 350°N
Pressure: 30.19"   Gusts: NA
Location:  33.62°N, 86.6°W
Report Text: KBHM 202153Z 35007KT 10SM OVC039 10/03 A3019 RMK AO2 SLP224 T01000028
Loading
Personal Weather Stations






























Interactive Weather Map New forecast layout! Learn more

10-Day Weather Forecast

Advertisements
Track Severe Weather on mobile